Nearby METAR Reports

Actuele Vliegveldwaarnemingen NL (METAR).Zie KNMI uitleg METAR hier

EHAM - Amsterdam/Schiph, Netherlands
Distance from station: ONO 18km
Updated: 07/10/2022 21:25
Few Clouds
Few Clouds
 Wind van ZZW
Wind: ZZW 24 km/h
Temperatuur: 14°C
Dauwpunt: 10°C
Vochtigheid: 77%
Barometer: 1016 hPa
Clouds: Few Clouds
Visibility: 10 km
Cloud details: Few Clouds 975 m
2022/10/07 19:25 EHAM 071925Z 21013KT 180V240 9999 FEW032 14/10 Q1016 NOSIG
EHKD - DE KOOY/DE KOOY
Updated: 07/10/2022 21:57
Zwaar bewolkt
Zwaar bewolkt
 Wind van ZW
Wind: ZW 37 km/h, Windvlaag: 57 km/h
Temperatuur: 16°C
Dauwpunt: 12°C
Vochtigheid: 77%
Barometer: 1014 hPa
Clouds: Zwaar bewolkt
Visibility: 10 km
Cloud details: Gedeeltelijk bewolkt 610 m
Meestal bewolkt 732 m
Zwaar bewolkt 1707 m
2022/10/07 19:57 EHKD 071957Z AUTO 22020G31KT 180V250 9999 SCT020 BKN024 OVC056 16/12 Q1014 WHT
 
EHLW - LEEUWARDEN/LEEUWARDEN
Updated: 07/10/2022 21:55
Helder
Helder
 Wind van Z
Wind: Z 19 km/h
Temperatuur: 13°C
Dauwpunt: 11°C
Vochtigheid: 88%
Barometer: 1014 hPa
Clouds: Helder
Visibility: 10 km
2022/10/07 19:55 EHLW 071955Z AUTO 19010KT 160V220 9999 NCD 13/11 Q1014 BLU
EHVK - VOLKEL/VOLKEL
Updated: 07/10/2022 21:55
Zwaar bewolkt
Zwaar bewolkt
 Wind van ZZW
Wind: ZZW 11 km/h
Temperatuur: 12°C
Dauwpunt: 8°C
Vochtigheid: 77%
Barometer: 1017 hPa
Clouds: Zwaar bewolkt
Visibility: 10 km
Cloud details: Zwaar bewolkt 7010 m
2022/10/07 19:55 EHVK 071955Z AUTO 21006KT 170V240 9999 OVC230 12/08 Q1017 BLU
 
EHFS - VLISSINGEN
Updated: 07/10/2022 21:55
Gedeeltelijk bewolkt
Gedeeltelijk bewolkt
 Wind van ZZW
Wind: ZZW 31 km/h
Temperatuur: 14°C
Dauwpunt: 10°C
Vochtigheid: 77%
Barometer: 1017 hPa
Clouds: Gedeeltelijk bewolkt
Visibility: 10 km
2022/10/07 19:55 EHFS 071955Z AUTO 21017KT 9999 NSC 14/10 Q1017
EHEH - EINDHOVEN/EINDHOVEN
Updated: 07/10/2022 21:55
Zwaar bewolkt
Zwaar bewolkt
 Wind van Z
Wind: Z 13 km/h
Temperatuur: 12°C
Dauwpunt: 8°C
Vochtigheid: 77%
Barometer: 1018 hPa
Clouds: Zwaar bewolkt
Visibility: 10 km
Cloud details: Zwaar bewolkt 6706 m
2022/10/07 19:55 EHEH 071955Z AUTO 19007KT 9999 OVC220 12/08 Q1018 BLU NOSIG
 
EHGR - GILZE-RIJEN/GILZE-RIJEN
Updated: 07/10/2022 21:55
Zwaar bewolkt
Zwaar bewolkt
 Wind van ZZW
Wind: ZZW 15 km/h
Temperatuur: 13°C
Dauwpunt: 9°C
Vochtigheid: 77%
Barometer: 1017 hPa
Clouds: Zwaar bewolkt
Visibility: 10 km
Cloud details: Meestal bewolkt 1494 m
Zwaar bewolkt 6706 m
2022/10/07 19:55 EHGR 071955Z AUTO 20008KT 160V240 9999 BKN049 OVC220 13/09 Q1017 BLU
EHDL - ARNHEM/DEELEN
Updated: 07/10/2022 21:55
Zwaar bewolkt
Zwaar bewolkt
 Wind van ZZW
Wind: ZZW 15 km/h
Temperatuur: 13°C
Dauwpunt: 9°C
Vochtigheid: 77%
Barometer: 1017 hPa
Clouds: Zwaar bewolkt
Visibility: 10 km
Cloud details: Zwaar bewolkt 6401 m
2022/10/07 19:55 EHDL 071955Z AUTO 20008KT 110V240 9999 OVC210 13/09 Q1017 BLU
 
EHBK - MAASTRICHT/MAASTRICHT-AACHEN
Updated: 07/10/2022 21:55
Gedeeltelijk bewolkt
Gedeeltelijk bewolkt
 Wind van ZZW
Wind: ZZW 13 km/h
Temperatuur: 11°C
Dauwpunt: 7°C
Vochtigheid: 77%
Barometer: 1019 hPa
Clouds: Gedeeltelijk bewolkt
Visibility: 10 km
2022/10/07 19:55 EHBK 071955Z AUTO 21007KT 9999 NSC 11/07 Q1019 NOSIG